createdAt,value
2019-02-09T00:00:42.826Z,996.33
2019-02-09T00:01:42.831Z,996.31
2019-02-09T00:02:42.832Z,996.25
2019-02-09T00:03:42.827Z,996.32
2019-02-09T00:04:42.801Z,996.28
2019-02-09T00:05:42.795Z,996.21
2019-02-09T00:06:42.779Z,996.25
2019-02-09T00:07:42.760Z,996.24
2019-02-09T00:08:42.759Z,996.26
2019-02-09T00:09:42.756Z,996.21
2019-02-09T00:10:42.731Z,996.13
2019-02-09T00:11:42.706Z,996.21
2019-02-09T00:12:42.703Z,996.22
2019-02-09T00:13:42.704Z,996.24
2019-02-09T00:14:42.712Z,996.20
2019-02-09T00:15:42.675Z,996.22
2019-02-09T00:16:42.672Z,996.25
2019-02-09T00:17:42.670Z,996.10
2019-02-09T00:18:42.632Z,996.16
2019-02-09T00:19:42.635Z,996.15
2019-02-09T00:20:42.641Z,996.17
2019-02-09T00:21:42.607Z,996.06
2019-02-09T00:22:42.609Z,996.08
2019-02-09T00:23:42.625Z,995.99
2019-02-09T00:24:42.572Z,996.01
2019-02-09T00:25:42.577Z,995.95
2019-02-09T00:26:42.576Z,995.97
2019-02-09T00:27:42.541Z,995.94
2019-02-09T00:28:42.556Z,995.94
2019-02-09T00:29:46.287Z,995.91
2019-02-09T00:30:42.497Z,995.82
2019-02-09T00:31:42.500Z,995.82
2019-02-09T00:32:42.534Z,995.80
2019-02-09T00:33:42.492Z,995.81
2019-02-09T00:34:42.456Z,995.76
2019-02-09T00:35:42.447Z,995.73
2019-02-09T00:36:42.436Z,995.72
2019-02-09T00:37:42.441Z,995.62
2019-02-09T00:38:42.447Z,995.67
2019-02-09T00:39:42.410Z,995.65
2019-02-09T00:40:42.390Z,995.69
2019-02-09T00:41:42.377Z,995.60
2019-02-09T00:42:42.378Z,995.65
2019-02-09T00:43:42.354Z,995.64
2019-02-09T00:44:42.375Z,995.54
2019-02-09T00:45:42.330Z,995.59
2019-02-09T00:46:42.329Z,995.55
2019-02-09T00:47:42.314Z,995.59
2019-02-09T00:48:42.308Z,995.55
2019-02-09T00:49:42.306Z,995.49
2019-02-09T00:50:42.330Z,995.47
2019-02-09T00:51:42.272Z,995.53
2019-02-09T00:52:42.260Z,995.48
2019-02-09T00:53:42.251Z,995.45
2019-02-09T00:54:42.240Z,995.38
2019-02-09T00:55:42.254Z,995.48
2019-02-09T00:56:42.246Z,995.38
2019-02-09T00:57:42.204Z,995.41
2019-02-09T00:58:42.192Z,995.47
2019-02-09T00:59:42.180Z,995.37
2019-02-09T01:00:42.168Z,995.40
2019-02-09T01:01:42.175Z,995.44
2019-02-09T01:02:42.177Z,995.46
2019-02-09T01:03:42.148Z,995.34
2019-02-09T01:04:42.133Z,995.45
2019-02-09T01:05:42.116Z,995.38
2019-02-09T01:06:42.120Z,995.44
2019-02-09T01:07:42.100Z,995.32
2019-02-09T01:08:42.115Z,995.42
2019-02-09T01:09:42.089Z,995.38
2019-02-09T01:10:42.059Z,995.42
2019-02-09T01:11:42.082Z,995.37
2019-02-09T01:12:42.041Z,995.41
2019-02-09T01:13:42.046Z,995.22
2019-02-09T01:14:42.015Z,995.34
2019-02-09T01:15:42.014Z,995.34
2019-02-09T01:16:42.003Z,995.34
2019-02-09T01:17:41.982Z,995.34
2019-02-09T01:18:42.010Z,995.37
2019-02-09T01:19:41.961Z,995.35
2019-02-09T01:20:41.962Z,995.26
2019-02-09T01:21:41.999Z,995.30
2019-02-09T01:22:41.931Z,995.30
2019-02-09T01:23:41.948Z,995.23
2019-02-09T01:24:41.989Z,995.33
2019-02-09T01:25:41.886Z,995.33
2019-02-09T01:26:41.888Z,995.33
2019-02-09T01:27:41.890Z,995.30
2019-02-09T01:28:41.884Z,995.35
2019-02-09T01:29:41.846Z,995.31
2019-02-09T01:30:41.854Z,995.30
2019-02-09T01:31:41.825Z,995.34
2019-02-09T01:32:41.810Z,995.26
2019-02-09T01:33:41.834Z,995.32
2019-02-09T01:34:41.792Z,995.21
2019-02-09T01:35:41.790Z,995.31
2019-02-09T01:36:41.777Z,995.10
2019-02-09T01:37:41.767Z,995.21
2019-02-09T01:38:41.772Z,995.42
2019-02-09T01:39:41.745Z,995.15
2019-02-09T01:40:41.728Z,995.19
2019-02-09T01:41:41.732Z,995.04
2019-02-09T01:42:41.701Z,995.09
2019-02-09T01:43:41.703Z,995.09
2019-02-09T01:44:41.692Z,995.00
2019-02-09T01:45:41.679Z,995.11
2019-02-09T01:46:41.667Z,994.97
2019-02-09T01:47:41.659Z,994.93
2019-02-09T01:48:41.700Z,994.90
2019-02-09T01:49:41.622Z,994.90
2019-02-09T01:50:41.641Z,994.98
2019-02-09T01:51:41.598Z,994.82
2019-02-09T01:52:41.604Z,994.84
2019-02-09T01:53:41.577Z,994.77
2019-02-09T01:54:41.609Z,994.82
2019-02-09T01:55:41.555Z,994.77
2019-02-09T01:56:41.560Z,994.78
2019-02-09T01:57:41.557Z,994.81
2019-02-09T01:58:41.542Z,994.75
2019-02-09T01:59:41.548Z,994.82
2019-02-09T02:00:41.501Z,994.71
2019-02-09T02:01:41.500Z,994.80
2019-02-09T02:02:41.506Z,994.72
2019-02-09T02:03:41.475Z,994.79
2019-02-09T02:04:41.470Z,994.82
2019-02-09T02:05:41.496Z,994.75
2019-02-09T02:06:41.434Z,994.76
2019-02-09T02:07:41.433Z,994.74
2019-02-09T02:08:41.437Z,994.79
2019-02-09T02:09:41.422Z,994.70
2019-02-09T02:10:41.408Z,994.67
2019-02-09T02:11:41.444Z,994.68
2019-02-09T02:12:41.371Z,994.70
2019-02-09T02:13:41.360Z,994.55
2019-02-09T02:14:41.356Z,994.64
2019-02-09T02:15:41.384Z,994.65
2019-02-09T02:16:41.370Z,994.63
2019-02-09T02:17:41.320Z,994.65
2019-02-09T02:18:41.305Z,994.66
2019-02-09T02:19:41.302Z,994.62
2019-02-09T02:20:41.294Z,994.52
2019-02-09T02:21:41.302Z,994.51
2019-02-09T02:22:41.265Z,994.50
2019-02-09T02:23:41.292Z,994.51
2019-02-09T02:24:41.246Z,994.55
2019-02-09T02:25:41.243Z,994.48
2019-02-09T02:26:41.234Z,994.06
2019-02-09T02:27:41.241Z,994.30
2019-02-09T02:28:41.202Z,994.50
2019-02-09T02:29:41.197Z,994.54
2019-02-09T02:30:41.186Z,994.50
2019-02-09T02:31:41.164Z,994.48
2019-02-09T02:32:41.166Z,994.37
2019-02-09T02:33:41.197Z,994.30
2019-02-09T02:34:41.142Z,994.32
2019-02-09T02:35:41.141Z,994.18
2019-02-09T02:36:41.117Z,994.16
2019-02-09T02:37:41.106Z,994.20
2019-02-09T02:38:41.117Z,994.10
2019-02-09T02:39:41.080Z,994.18
2019-02-09T02:40:41.070Z,994.13
2019-02-09T02:41:41.055Z,994.13
2019-02-09T02:42:41.048Z,994.06
2019-02-09T02:43:41.035Z,994.15
2019-02-09T02:44:41.055Z,994.08
2019-02-09T02:45:41.014Z,994.05
2019-02-09T02:46:41.019Z,994.05
2019-02-09T02:47:41.004Z,993.98
2019-02-09T02:48:41.017Z,994.07
2019-02-09T02:49:40.975Z,994.11
2019-02-09T02:50:40.976Z,993.97
2019-02-09T02:51:40.952Z,994.01
2019-02-09T02:52:40.947Z,993.77
2019-02-09T02:53:40.929Z,993.95
2019-02-09T02:54:40.935Z,993.95
2019-02-09T02:55:40.937Z,993.87
2019-02-09T02:56:40.924Z,993.92
2019-02-09T02:57:40.884Z,993.85
2019-02-09T02:58:40.882Z,993.79
2019-02-09T02:59:40.867Z,993.93
2019-02-09T03:00:40.891Z,993.86
2019-02-09T03:01:40.862Z,993.84
2019-02-09T03:02:40.836Z,993.77
2019-02-09T03:03:40.814Z,993.75
2019-02-09T03:04:40.804Z,993.75
2019-02-09T03:05:40.846Z,993.72
2019-02-09T03:06:40.820Z,993.69
2019-02-09T03:07:40.786Z,993.74
2019-02-09T03:08:40.766Z,993.73
2019-02-09T03:09:40.755Z,993.68
2019-02-09T03:10:40.781Z,993.73
2019-02-09T03:11:40.754Z,993.76
2019-02-09T03:12:40.735Z,993.70
2019-02-09T03:13:40.707Z,993.72
2019-02-09T03:14:40.702Z,993.76
2019-02-09T03:15:40.702Z,993.77
2019-02-09T03:16:40.708Z,993.69
2019-02-09T03:17:40.664Z,993.75
2019-02-09T03:18:40.654Z,993.67
2019-02-09T03:19:40.675Z,993.65
2019-02-09T03:20:40.671Z,993.66
2019-02-09T03:21:40.631Z,993.72
2019-02-09T03:22:40.618Z,993.77
2019-02-09T03:23:40.606Z,993.71
2019-02-09T03:24:40.591Z,993.67
2019-02-09T03:25:40.586Z,993.59
2019-02-09T03:26:40.587Z,993.67
2019-02-09T03:27:40.567Z,993.65
2019-02-09T03:28:40.569Z,993.59
2019-02-09T03:29:40.539Z,993.59
2019-02-09T03:30:47.587Z,993.74
2019-02-09T03:31:41.511Z,993.58
2019-02-09T03:32:40.507Z,993.61
2019-02-09T03:33:40.491Z,993.61
2019-02-09T03:34:40.489Z,993.57
2019-02-09T03:35:40.510Z,993.58
2019-02-09T03:36:40.473Z,993.61
2019-02-09T03:37:40.442Z,993.60
2019-02-09T03:38:40.437Z,993.52
2019-02-09T03:39:40.426Z,993.55
2019-02-09T03:40:40.409Z,993.47
2019-02-09T03:41:40.424Z,993.44
2019-02-09T03:42:40.392Z,993.53
2019-02-09T03:43:40.393Z,993.54
2019-02-09T03:44:40.384Z,993.54
2019-02-09T03:45:40.383Z,993.52
2019-02-09T03:46:40.377Z,993.42
2019-02-09T03:47:40.358Z,993.37
2019-02-09T03:48:40.342Z,993.47
2019-02-09T03:49:40.317Z,993.43
2019-02-09T03:50:40.302Z,993.37
2019-02-09T03:51:40.313Z,993.39
2019-02-09T03:52:40.311Z,993.33
2019-02-09T03:53:40.292Z,993.30
2019-02-09T03:54:40.262Z,993.30
2019-02-09T03:55:40.253Z,993.31
2019-02-09T03:56:40.250Z,993.39
2019-02-09T03:57:40.228Z,993.34
2019-02-09T03:58:40.248Z,993.25
2019-02-09T03:59:40.214Z,993.30
2019-02-09T04:00:40.194Z,993.36
2019-02-09T04:01:40.184Z,993.31
2019-02-09T04:02:40.182Z,993.38
2019-02-09T04:03:40.180Z,993.43
2019-02-09T04:04:40.159Z,993.32
2019-02-09T04:05:40.140Z,993.33
2019-02-09T04:06:40.134Z,993.27
2019-02-09T04:07:40.119Z,993.33
2019-02-09T04:08:40.151Z,993.32
2019-02-09T04:09:40.227Z,993.37
2019-02-09T04:10:40.094Z,993.24
2019-02-09T04:11:40.083Z,993.27
2019-02-09T04:12:40.057Z,993.26
2019-02-09T04:13:40.065Z,993.27
2019-02-09T04:14:40.062Z,993.32
2019-02-09T04:15:40.039Z,993.35
2019-02-09T04:16:40.037Z,993.37
2019-02-09T04:17:40.027Z,993.41
2019-02-09T04:18:39.997Z,993.38
2019-02-09T04:19:39.999Z,993.40
2019-02-09T04:20:40.108Z,993.37
2019-02-09T04:21:39.974Z,993.32
2019-02-09T04:22:39.974Z,993.28
2019-02-09T04:23:39.958Z,993.26
2019-02-09T04:24:39.929Z,993.28
2019-02-09T04:25:39.948Z,993.30
2019-02-09T04:26:39.905Z,993.21
2019-02-09T04:27:39.913Z,993.19
2019-02-09T04:28:39.913Z,993.19
2019-02-09T04:29:39.870Z,993.16
2019-02-09T04:30:39.867Z,992.98
2019-02-09T04:31:39.888Z,993.07
2019-02-09T04:32:39.844Z,993.03
2019-02-09T04:33:39.869Z,993.04
2019-02-09T04:34:39.830Z,993.05
2019-02-09T04:35:39.804Z,993.05
2019-02-09T04:36:39.809Z,992.93
2019-02-09T04:37:39.810Z,993.06
2019-02-09T04:38:39.778Z,993.10
2019-02-09T04:39:39.771Z,993.08
2019-02-09T04:40:39.768Z,993.30
2019-02-09T04:41:39.739Z,993.16
2019-02-09T04:42:39.759Z,993.11
2019-02-09T04:43:39.727Z,993.10
2019-02-09T04:44:39.731Z,993.07
2019-02-09T04:45:39.731Z,993.12
2019-02-09T04:46:39.701Z,992.97
2019-02-09T04:47:39.694Z,993.04
2019-02-09T04:48:39.693Z,993.11
2019-02-09T04:49:39.655Z,993.12
2019-02-09T04:50:39.653Z,993.10
2019-02-09T04:51:39.649Z,993.12
2019-02-09T04:52:39.656Z,993.08
2019-02-09T04:53:39.622Z,993.06
2019-02-09T04:54:39.598Z,993.13
2019-02-09T04:55:39.606Z,993.24
2019-02-09T04:56:39.590Z,993.06
2019-02-09T04:57:39.607Z,993.04
2019-02-09T04:58:39.603Z,993.15
2019-02-09T04:59:39.559Z,993.14
2019-02-09T05:00:39.542Z,993.11
2019-02-09T05:01:39.533Z,993.12
2019-02-09T05:02:39.526Z,993.16
2019-02-09T05:03:39.523Z,993.15
2019-02-09T05:04:39.494Z,992.99
2019-02-09T05:05:39.486Z,993.13
2019-02-09T05:06:39.477Z,993.19
2019-02-09T05:07:39.462Z,993.20
2019-02-09T05:08:39.475Z,993.06
2019-02-09T05:09:39.508Z,993.11
2019-02-09T05:10:39.434Z,993.09
2019-02-09T05:11:39.431Z,993.11
2019-02-09T05:12:39.407Z,993.19
2019-02-09T05:13:39.421Z,993.09
2019-02-09T05:14:39.395Z,993.00
2019-02-09T05:15:39.367Z,993.02
2019-02-09T05:16:39.357Z,992.92
2019-02-09T05:17:39.350Z,992.90
2019-02-09T05:18:39.339Z,992.93
2019-02-09T05:19:39.357Z,992.92
2019-02-09T05:20:39.322Z,992.91
2019-02-09T05:21:39.307Z,992.92
2019-02-09T05:22:39.295Z,992.95
2019-02-09T05:23:39.283Z,992.91
2019-02-09T05:24:39.293Z,992.96
2019-02-09T05:25:39.328Z,992.91
2019-02-09T05:26:39.265Z,992.93
2019-02-09T05:27:39.245Z,992.84
2019-02-09T05:28:39.245Z,992.87
2019-02-09T05:29:39.211Z,993.10
2019-02-09T05:30:39.236Z,992.74
2019-02-09T05:31:39.227Z,992.83
2019-02-09T05:32:39.189Z,992.89
2019-02-09T05:33:39.181Z,992.91
2019-02-09T05:34:39.182Z,992.99
2019-02-09T05:35:39.183Z,992.95
2019-02-09T05:36:39.143Z,992.90
2019-02-09T05:37:39.123Z,992.95
2019-02-09T05:38:39.123Z,992.96
2019-02-09T05:39:39.108Z,992.96
2019-02-09T05:40:39.134Z,992.87
2019-02-09T05:41:39.097Z,992.98
2019-02-09T05:42:39.112Z,992.85
2019-02-09T05:43:39.067Z,992.98
2019-02-09T05:44:39.056Z,992.90
2019-02-09T05:45:39.056Z,993.00
2019-02-09T05:46:39.057Z,992.93
2019-02-09T05:47:39.023Z,992.91
2019-02-09T05:48:39.016Z,992.89
2019-02-09T05:49:38.997Z,992.83
2019-02-09T05:50:39.029Z,992.88
2019-02-09T05:51:38.973Z,992.86
2019-02-09T05:52:38.976Z,992.85
2019-02-09T05:53:38.958Z,992.88
2019-02-09T05:54:38.936Z,992.93
2019-02-09T05:55:38.926Z,993.00
2019-02-09T05:56:39.004Z,992.89
2019-02-09T05:57:38.937Z,992.85
2019-02-09T05:58:38.898Z,992.85
2019-02-09T05:59:38.892Z,992.81
2019-02-09T06:00:38.875Z,992.76
2019-02-09T06:01:38.866Z,992.71
2019-02-09T06:02:38.876Z,992.81
2019-02-09T06:03:38.868Z,992.81
2019-02-09T06:04:38.840Z,992.90
2019-02-09T06:05:38.826Z,992.90
2019-02-09T06:06:38.803Z,992.77
2019-02-09T06:07:38.811Z,993.18
2019-02-09T06:08:38.802Z,993.19
2019-02-09T06:09:38.773Z,992.94
2019-02-09T06:10:38.786Z,992.98
2019-02-09T06:11:38.767Z,993.14
2019-02-09T06:12:38.749Z,993.42
2019-02-09T06:13:38.761Z,993.12
2019-02-09T06:14:38.719Z,993.28
2019-02-09T06:15:38.721Z,993.24
2019-02-09T06:16:38.730Z,993.19
2019-02-09T06:17:38.703Z,993.36
2019-02-09T06:18:38.703Z,993.22
2019-02-09T06:19:38.670Z,993.33
2019-02-09T06:20:38.665Z,993.29
2019-02-09T06:21:38.688Z,993.17
2019-02-09T06:22:38.648Z,993.14
2019-02-09T06:23:38.665Z,993.33
2019-02-09T06:24:38.615Z,993.10
2019-02-09T06:25:38.611Z,993.16
2019-02-09T06:26:38.614Z,993.16
2019-02-09T06:27:38.629Z,993.60
2019-02-09T06:28:38.622Z,993.28
2019-02-09T06:29:38.609Z,993.23
2019-02-09T06:30:38.550Z,993.26
2019-02-09T06:31:41.009Z,993.86
2019-02-09T06:32:38.545Z,993.42
2019-02-09T06:33:38.540Z,993.46
2019-02-09T06:34:38.535Z,993.39
2019-02-09T06:35:38.492Z,993.45
2019-02-09T06:36:38.541Z,993.35
2019-02-09T06:37:39.019Z,993.37
2019-02-09T06:38:38.555Z,993.35
2019-02-09T06:39:38.542Z,993.23
2019-02-09T06:40:38.471Z,993.05
2019-02-09T06:41:38.426Z,993.18
2019-02-09T06:42:38.439Z,993.29
2019-02-09T06:43:38.405Z,993.22
2019-02-09T06:44:38.536Z,993.41
2019-02-09T06:45:38.409Z,993.52
2019-02-09T06:46:38.384Z,993.46
2019-02-09T06:47:38.359Z,993.46
2019-02-09T06:48:38.365Z,993.30
2019-02-09T06:49:38.332Z,993.21
2019-02-09T06:50:38.349Z,993.18
2019-02-09T06:51:38.334Z,993.18
2019-02-09T06:52:38.300Z,993.30
2019-02-09T06:53:38.301Z,993.25
2019-02-09T06:54:38.277Z,993.36
2019-02-09T06:55:38.372Z,993.26
2019-02-09T06:56:38.450Z,993.15
2019-02-09T06:57:38.282Z,993.15
2019-02-09T06:58:38.315Z,993.26
2019-02-09T06:59:38.224Z,993.40
2019-02-09T07:00:38.211Z,993.46
2019-02-09T07:01:38.415Z,993.28
2019-02-09T07:02:38.199Z,993.37
2019-02-09T07:03:38.185Z,993.38
2019-02-09T07:04:38.173Z,993.38
2019-02-09T07:05:38.164Z,993.33
2019-02-09T07:06:38.194Z,993.33
2019-02-09T07:07:38.160Z,993.29
2019-02-09T07:08:38.150Z,993.36
2019-02-09T07:09:38.153Z,993.31
2019-02-09T07:10:38.145Z,993.38
2019-02-09T07:11:38.094Z,993.52
2019-02-09T07:12:38.126Z,993.44
2019-02-09T07:13:38.158Z,993.58
2019-02-09T07:14:38.059Z,993.46
2019-02-09T07:15:38.055Z,993.60
2019-02-09T07:16:38.054Z,993.55
2019-02-09T07:17:38.030Z,993.51
2019-02-09T07:18:38.042Z,993.44
2019-02-09T07:19:38.056Z,993.53
2019-02-09T07:20:38.056Z,993.43
2019-02-09T07:21:37.987Z,993.45
2019-02-09T07:22:37.985Z,993.58
2019-02-09T07:23:37.968Z,993.44
2019-02-09T07:24:37.975Z,993.50
2019-02-09T07:25:37.945Z,993.59
2019-02-09T07:26:37.930Z,993.48
2019-02-09T07:27:37.931Z,993.57
2019-02-09T07:28:37.927Z,993.68
2019-02-09T07:29:37.947Z,993.63
2019-02-09T07:30:37.902Z,993.89
2019-02-09T07:31:37.886Z,993.68
2019-02-09T07:32:37.871Z,993.60
2019-02-09T07:33:37.873Z,993.67
2019-02-09T07:34:37.880Z,993.60
2019-02-09T07:35:37.838Z,993.76
2019-02-09T07:36:37.839Z,993.59
2019-02-09T07:37:37.829Z,993.62
2019-02-09T07:38:37.806Z,993.66
2019-02-09T07:39:37.811Z,993.60
2019-02-09T07:40:37.796Z,993.67
2019-02-09T07:41:37.784Z,993.80
2019-02-09T07:42:37.770Z,993.90
2019-02-09T07:43:37.759Z,993.67
2019-02-09T07:44:37.761Z,993.72
2019-02-09T07:45:37.739Z,993.68
2019-02-09T07:46:37.717Z,993.69
2019-02-09T07:47:37.706Z,993.70
2019-02-09T07:48:37.700Z,993.84
2019-02-09T07:49:37.727Z,993.84
2019-02-09T07:50:37.679Z,993.81
2019-02-09T07:51:37.684Z,993.71
2019-02-09T07:52:37.649Z,993.75
2019-02-09T07:53:37.667Z,993.73
2019-02-09T07:54:37.655Z,993.61
2019-02-09T07:55:37.665Z,993.80
2019-02-09T07:56:37.608Z,993.88
2019-02-09T07:57:37.599Z,993.80
2019-02-09T07:58:37.601Z,993.89
2019-02-09T07:59:37.578Z,994.04
2019-02-09T08:00:37.602Z,993.82
2019-02-09T08:01:37.554Z,993.95
2019-02-09T08:02:37.606Z,993.94
2019-02-09T08:03:37.540Z,993.91
2019-02-09T08:04:37.528Z,993.75
2019-02-09T08:05:37.542Z,993.87
2019-02-09T08:06:37.528Z,993.97
2019-02-09T08:07:37.491Z,993.89
2019-02-09T08:08:37.497Z,993.85
2019-02-09T08:09:37.483Z,993.84
2019-02-09T08:10:37.464Z,994.05
2019-02-09T08:11:37.527Z,993.99
2019-02-09T08:12:37.464Z,993.91
2019-02-09T08:13:37.446Z,993.81
2019-02-09T08:14:37.442Z,993.81
2019-02-09T08:15:37.429Z,993.75
2019-02-09T08:16:37.433Z,993.83
2019-02-09T08:17:37.393Z,993.90
2019-02-09T08:18:37.388Z,993.89
2019-02-09T08:19:37.365Z,993.97
2019-02-09T08:20:37.353Z,994.00
2019-02-09T08:21:37.337Z,993.89
2019-02-09T08:22:37.342Z,993.81
2019-02-09T08:23:37.316Z,993.87
2019-02-09T08:24:37.322Z,993.83
2019-02-09T08:25:37.302Z,993.92
2019-02-09T08:26:37.303Z,993.92
2019-02-09T08:27:37.300Z,993.80
2019-02-09T08:28:37.279Z,993.98
2019-02-09T08:29:37.282Z,994.00
2019-02-09T08:30:37.250Z,994.09
2019-02-09T08:31:37.237Z,993.96
2019-02-09T08:32:37.232Z,993.93
2019-02-09T08:33:37.238Z,993.78
2019-02-09T08:34:37.217Z,993.99
2019-02-09T08:35:37.191Z,994.28
2019-02-09T08:36:37.180Z,994.05
2019-02-09T08:37:37.173Z,994.03
2019-02-09T08:38:37.164Z,994.01
2019-02-09T08:39:37.161Z,993.98
2019-02-09T08:40:37.147Z,994.06
2019-02-09T08:41:37.131Z,994.07
2019-02-09T08:42:37.117Z,993.96
2019-02-09T08:43:37.113Z,994.17
2019-02-09T08:44:37.126Z,994.11
2019-02-09T08:45:37.083Z,994.03
2019-02-09T08:46:37.064Z,994.28
2019-02-09T08:47:37.066Z,994.14
2019-02-09T08:48:37.047Z,994.09
2019-02-09T08:49:37.034Z,994.18
2019-02-09T08:50:37.063Z,994.28
2019-02-09T08:51:37.019Z,994.12
2019-02-09T08:52:37.024Z,994.39
2019-02-09T08:53:36.990Z,994.17
2019-02-09T08:54:37.008Z,994.22
2019-02-09T08:55:36.974Z,994.06
2019-02-09T08:56:36.973Z,994.35
2019-02-09T08:57:36.975Z,994.26
2019-02-09T08:58:36.948Z,994.34
2019-02-09T08:59:36.933Z,994.21
2019-02-09T09:00:36.923Z,994.23
2019-02-09T09:01:36.986Z,994.36
2019-02-09T09:02:36.896Z,994.22
2019-02-09T09:03:36.908Z,994.18
2019-02-09T09:04:36.875Z,994.21
2019-02-09T09:05:36.873Z,994.21
2019-02-09T09:06:36.923Z,994.21
2019-02-09T09:07:36.842Z,994.67
2019-02-09T09:08:36.859Z,994.26
2019-02-09T09:09:36.935Z,994.47
2019-02-09T09:10:36.800Z,994.26
2019-02-09T09:11:36.817Z,994.11
2019-02-09T09:12:36.817Z,994.25
2019-02-09T09:13:36.840Z,994.41
2019-02-09T09:14:36.764Z,994.17
2019-02-09T09:15:36.856Z,994.27
2019-02-09T09:16:36.749Z,994.28
2019-02-09T09:17:36.764Z,994.58
2019-02-09T09:18:36.721Z,994.29
2019-02-09T09:19:36.712Z,994.45
2019-02-09T09:20:36.719Z,994.49
2019-02-09T09:21:36.685Z,994.35
2019-02-09T09:22:36.677Z,994.35
2019-02-09T09:23:36.710Z,994.31
2019-02-09T09:24:36.659Z,994.44
2019-02-09T09:25:36.643Z,994.40
2019-02-09T09:26:36.627Z,994.32
2019-02-09T09:27:36.623Z,994.39
2019-02-09T09:28:36.606Z,994.24
2019-02-09T09:29:36.624Z,994.23
2019-02-09T09:30:36.636Z,994.27
2019-02-09T09:31:36.594Z,994.36
2019-02-09T09:32:36.558Z,994.47
2019-02-09T09:33:36.550Z,994.13
2019-02-09T09:34:36.536Z,994.22
2019-02-09T09:35:36.611Z,994.39
2019-02-09T09:36:36.569Z,994.21
2019-02-09T09:37:36.510Z,994.25
2019-02-09T09:38:36.580Z,994.29
2019-02-09T09:39:36.489Z,994.31
2019-02-09T09:40:36.491Z,994.62
2019-02-09T09:41:36.479Z,993.99
2019-02-09T09:42:36.461Z,994.55
2019-02-09T09:43:36.442Z,994.29
2019-02-09T09:44:36.455Z,994.25
2019-02-09T09:45:36.423Z,994.31
2019-02-09T09:46:36.439Z,994.48
2019-02-09T09:47:36.409Z,994.50
2019-02-09T09:48:36.407Z,994.49
2019-02-09T09:49:36.394Z,994.56
2019-02-09T09:50:36.370Z,994.56
2019-02-09T09:51:36.379Z,994.49
2019-02-09T09:52:36.372Z,994.66
2019-02-09T09:53:36.348Z,994.75
2019-02-09T09:54:36.330Z,994.44
2019-02-09T09:55:36.310Z,994.60
2019-02-09T09:56:36.342Z,994.49
2019-02-09T09:57:36.304Z,994.52
2019-02-09T09:58:36.776Z,994.80
2019-02-09T09:59:36.307Z,994.80
2019-02-09T10:00:36.281Z,995.22
2019-02-09T10:01:36.258Z,994.97
2019-02-09T10:02:36.694Z,994.52
2019-02-09T10:03:36.232Z,994.65
2019-02-09T10:04:36.216Z,994.59
2019-02-09T10:05:36.212Z,994.58
2019-02-09T10:06:36.220Z,994.57
2019-02-09T10:07:36.213Z,994.63
2019-02-09T10:08:36.173Z,994.68
2019-02-09T10:09:36.236Z,994.85
2019-02-09T10:10:36.145Z,994.64
2019-02-09T10:11:36.205Z,994.85
2019-02-09T10:12:36.196Z,994.68
2019-02-09T10:13:36.229Z,994.69
2019-02-09T10:14:36.125Z,994.94
2019-02-09T10:15:36.098Z,994.87
2019-02-09T10:16:36.077Z,994.87
2019-02-09T10:17:36.132Z,994.90
2019-02-09T10:18:36.097Z,994.81
2019-02-09T10:19:36.053Z,994.84
2019-02-09T10:20:36.056Z,995.12
2019-02-09T10:21:36.053Z,994.90
2019-02-09T10:22:36.023Z,994.82
2019-02-09T10:23:36.000Z,994.95
2019-02-09T10:24:36.029Z,994.98
2019-02-09T10:25:35.988Z,995.26
2019-02-09T10:26:36.005Z,994.86
2019-02-09T10:27:36.012Z,994.86
2019-02-09T10:28:35.959Z,994.80
2019-02-09T10:29:35.940Z,994.85
2019-02-09T10:30:35.941Z,994.95
2019-02-09T10:31:35.946Z,994.97
2019-02-09T10:32:35.898Z,995.21
2019-02-09T10:33:35.904Z,994.85
2019-02-09T10:34:35.871Z,994.92
2019-02-09T10:35:35.912Z,994.90
2019-02-09T10:36:35.860Z,994.87
2019-02-09T10:37:35.857Z,994.82
2019-02-09T10:38:35.829Z,994.93
2019-02-09T10:39:35.825Z,994.98
2019-02-09T10:40:35.873Z,995.05
2019-02-09T10:41:35.874Z,994.77
2019-02-09T10:42:35.866Z,994.71
2019-02-09T10:43:35.805Z,994.67
2019-02-09T10:44:35.834Z,994.80
2019-02-09T10:45:35.861Z,994.78
2019-02-09T10:46:35.744Z,994.97
2019-02-09T10:47:35.751Z,995.00
2019-02-09T10:48:35.730Z,994.84
2019-02-09T10:49:35.721Z,995.10
2019-02-09T10:50:35.721Z,994.85
2019-02-09T10:51:35.712Z,994.68
2019-02-09T10:52:35.682Z,994.53
2019-02-09T10:53:35.696Z,994.71
2019-02-09T10:54:35.664Z,994.55
2019-02-09T10:55:35.643Z,994.74
2019-02-09T10:56:35.647Z,994.62
2019-02-09T10:57:35.645Z,994.64
2019-02-09T10:58:35.650Z,994.62
2019-02-09T10:59:35.607Z,994.56
2019-02-09T11:00:35.594Z,994.70
2019-02-09T11:01:35.582Z,994.82
2019-02-09T11:02:35.584Z,994.53
2019-02-09T11:03:35.588Z,994.95
2019-02-09T11:04:35.587Z,994.95
2019-02-09T11:05:35.541Z,994.60
2019-02-09T11:06:35.524Z,994.75
2019-02-09T11:07:35.510Z,995.02
2019-02-09T11:08:35.516Z,994.72
2019-02-09T11:09:35.511Z,995.29
2019-02-09T11:10:35.532Z,994.56
2019-02-09T11:11:35.473Z,995.10
2019-02-09T11:12:35.485Z,994.69
2019-02-09T11:13:35.450Z,994.86
2019-02-09T11:14:35.448Z,994.90
2019-02-09T11:15:35.425Z,995.80
2019-02-09T11:16:35.427Z,994.84
2019-02-09T11:17:35.406Z,994.59
2019-02-09T11:18:35.417Z,994.79
2019-02-09T11:19:35.395Z,994.90
2019-02-09T11:20:35.520Z,995.23
2019-02-09T11:21:35.439Z,994.93
2019-02-09T11:22:35.496Z,994.80
2019-02-09T11:23:35.377Z,994.75
2019-02-09T11:24:35.332Z,994.76
2019-02-09T11:25:35.338Z,994.93
2019-02-09T11:26:35.336Z,994.87
2019-02-09T11:27:35.350Z,994.81
2019-02-09T11:28:35.295Z,994.65
2019-02-09T11:29:35.335Z,994.73
2019-02-09T11:30:35.277Z,994.75
2019-02-09T11:31:35.265Z,994.67
2019-02-09T11:32:35.255Z,994.93
2019-02-09T11:33:35.369Z,994.83
2019-02-09T11:34:35.220Z,994.91
2019-02-09T11:35:35.208Z,994.78
2019-02-09T11:36:35.314Z,994.99
2019-02-09T11:37:35.250Z,994.75
2019-02-09T11:38:35.204Z,995.69
2019-02-09T11:39:35.180Z,994.85
2019-02-09T11:40:35.153Z,994.75
2019-02-09T11:41:35.232Z,994.89
2019-02-09T11:42:35.164Z,994.87
2019-02-09T11:43:35.157Z,994.60
2019-02-09T11:44:40.993Z,995.01
2019-02-09T11:45:36.221Z,994.69
2019-02-09T11:46:35.085Z,994.89
2019-02-09T11:47:35.092Z,994.67
2019-02-09T11:48:35.196Z,994.45
2019-02-09T11:49:35.152Z,994.64
2019-02-09T11:50:35.086Z,994.73
2019-02-09T11:51:35.139Z,994.55
2019-02-09T11:52:35.027Z,994.62
2019-02-09T11:53:35.055Z,994.65
2019-02-09T11:54:35.026Z,995.00
2019-02-09T11:55:34.994Z,994.41
2019-02-09T11:56:36.331Z,994.44
2019-02-09T11:57:35.066Z,994.51
2019-02-09T11:58:34.965Z,994.69
2019-02-09T11:59:35.466Z,994.75
2019-02-09T12:00:35.051Z,994.56
2019-02-09T12:01:36.121Z,994.76
2019-02-09T12:02:34.969Z,994.54
2019-02-09T12:03:34.954Z,994.59
2019-02-09T12:04:34.984Z,994.32
2019-02-09T12:05:34.883Z,994.40
2019-02-09T12:06:34.887Z,994.35
2019-02-09T12:07:34.890Z,994.74
2019-02-09T12:08:34.964Z,994.77
2019-02-09T12:09:34.954Z,994.54
2019-02-09T12:10:34.837Z,994.58
2019-02-09T12:11:34.815Z,994.89
2019-02-09T12:12:34.797Z,994.50
2019-02-09T12:13:34.809Z,994.42
2019-02-09T12:14:34.817Z,994.59
2019-02-09T12:15:34.813Z,994.85
2019-02-09T12:16:34.796Z,995.02
2019-02-09T12:17:34.751Z,995.14
2019-02-09T12:18:34.760Z,994.76
2019-02-09T12:19:34.748Z,994.69
2019-02-09T12:20:34.903Z,994.59
2019-02-09T12:21:34.761Z,994.63
2019-02-09T12:22:34.762Z,994.37
2019-02-09T12:23:34.717Z,994.40
2019-02-09T12:24:34.681Z,994.86
2019-02-09T12:25:34.745Z,994.53
2019-02-09T12:26:34.753Z,994.49
2019-02-09T12:27:34.647Z,994.54
2019-02-09T12:28:34.696Z,994.49